createdAt,value
2023-03-03T00:00:05.013Z,100590.59
2023-03-03T00:02:32.704Z,100580.16
2023-03-03T00:05:00.355Z,100580.34
2023-03-03T00:07:31.331Z,100589.13
2023-03-03T00:09:58.960Z,100590.00
2023-03-03T00:12:26.976Z,100595.34
2023-03-03T00:14:54.701Z,100605.03
2023-03-03T00:17:22.337Z,100591.97
2023-03-03T00:19:50.187Z,100595.44
2023-03-03T00:22:17.862Z,100598.03
2023-03-03T00:24:45.825Z,100609.41
2023-03-03T00:27:13.493Z,100595.44
2023-03-03T00:29:41.186Z,100592.81
2023-03-03T00:32:09.014Z,100597.28
2023-03-03T00:34:36.678Z,100591.16
2023-03-03T00:37:04.684Z,100585.88
2023-03-03T00:39:32.333Z,100585.88
2023-03-03T00:42:00.733Z,100590.25
2023-03-03T00:44:29.346Z,100591.97
2023-03-03T00:46:56.938Z,100582.31
2023-03-03T00:49:25.217Z,100592.78
2023-03-03T00:51:53.185Z,100586.63
2023-03-03T00:54:21.117Z,100587.50
2023-03-03T00:56:48.739Z,100600.66
2023-03-03T00:59:16.340Z,100598.03
2023-03-03T01:01:44.387Z,100593.69
2023-03-03T01:04:12.053Z,100590.13
2023-03-03T01:06:39.739Z,100579.59
2023-03-03T01:09:07.324Z,100577.00
2023-03-03T01:11:34.916Z,100585.69
2023-03-03T01:14:03.270Z,100586.56
2023-03-03T01:16:30.936Z,100590.00
2023-03-03T01:18:58.530Z,100588.25
2023-03-03T01:21:26.144Z,100596.03
2023-03-03T01:23:53.728Z,100595.19
2023-03-03T01:26:21.686Z,100594.38
2023-03-03T01:28:49.338Z,100597.09
2023-03-03T01:31:17.082Z,100591.84
2023-03-03T01:33:44.732Z,100579.59
2023-03-03T01:36:12.704Z,100585.75
2023-03-03T01:38:40.462Z,100589.22
2023-03-03T01:41:08.098Z,100597.06
2023-03-03T01:43:35.740Z,100587.50
2023-03-03T01:46:03.539Z,100586.59
2023-03-03T01:48:31.139Z,100585.81
2023-03-03T01:50:58.771Z,100587.63
2023-03-03T01:53:26.372Z,100579.94
2023-03-03T01:55:54.228Z,100592.19
2023-03-03T01:58:21.916Z,100594.81
2023-03-03T02:00:50.378Z,100593.16
2023-03-03T02:03:18.360Z,100600.19
2023-03-03T02:05:46.057Z,100597.59
2023-03-03T02:08:13.681Z,100596.69
2023-03-03T02:10:41.471Z,100579.97
2023-03-03T02:13:09.134Z,100579.06
2023-03-03T02:15:37.592Z,100575.50
2023-03-03T02:18:05.442Z,100572.88
2023-03-03T02:20:33.051Z,100569.41
2023-03-03T02:23:00.878Z,100563.28
2023-03-03T02:25:28.450Z,100561.66
2023-03-03T02:27:57.677Z,100566.91
2023-03-03T02:30:25.321Z,100573.84
2023-03-03T02:32:52.937Z,100575.63
2023-03-03T02:35:20.634Z,100591.41
2023-03-03T02:37:48.267Z,100584.44
2023-03-03T02:40:16.534Z,100588.84
2023-03-03T02:42:44.175Z,100589.81
2023-03-03T02:45:11.794Z,100593.34
2023-03-03T02:47:39.766Z,100596.84
2023-03-03T02:50:07.417Z,100591.56
2023-03-03T02:52:35.365Z,100584.50
2023-03-03T02:55:03.032Z,100590.66
2023-03-03T02:57:30.677Z,100586.22
2023-03-03T02:59:58.459Z,100587.09
2023-03-03T03:02:27.461Z,100582.59
2023-03-03T03:04:55.088Z,100577.34
2023-03-03T03:07:22.729Z,100572.09
2023-03-03T03:09:50.339Z,100575.56
2023-03-03T03:12:19.453Z,100579.97
2023-03-03T03:14:47.043Z,100587.84
2023-03-03T03:17:14.693Z,100588.75
2023-03-03T03:19:42.352Z,100592.31
2023-03-03T03:22:09.924Z,100589.69
2023-03-03T03:24:38.771Z,100588.75
2023-03-03T03:27:06.388Z,100587.84
2023-03-03T03:29:33.966Z,100588.59
2023-03-03T03:32:01.566Z,100600.06
2023-03-03T03:34:29.183Z,100593.06
2023-03-03T03:36:56.764Z,100595.72
2023-03-03T03:39:24.324Z,100590.53
2023-03-03T03:41:52.320Z,100590.56
2023-03-03T03:44:19.946Z,100602.00
2023-03-03T03:46:47.848Z,100599.44
2023-03-03T03:49:15.656Z,100605.53
2023-03-03T03:51:43.244Z,100618.72
2023-03-03T03:54:11.307Z,100609.94
2023-03-03T03:56:38.934Z,100616.03
2023-03-03T03:59:06.542Z,100610.91
2023-03-03T04:01:34.134Z,100613.63
2023-03-03T04:04:01.736Z,100619.88
2023-03-03T04:06:29.697Z,100614.75
2023-03-03T04:08:57.593Z,100615.72
2023-03-03T04:11:25.438Z,100614.06
2023-03-03T04:13:52.997Z,100605.31
2023-03-03T04:16:20.568Z,100620.22
2023-03-03T04:18:48.522Z,100614.09
2023-03-03T04:21:16.102Z,100623.72
2023-03-03T04:23:43.696Z,100613.34
2023-03-03T04:26:11.547Z,100619.47
2023-03-03T04:28:39.142Z,100626.47
2023-03-03T04:31:07.149Z,100616.88
2023-03-03T04:33:34.826Z,100620.44
2023-03-03T04:36:02.402Z,100622.19
2023-03-03T04:38:30.198Z,100624.78
2023-03-03T04:40:57.856Z,100620.28
2023-03-03T04:43:25.797Z,100621.06
2023-03-03T04:45:53.427Z,100629.00
2023-03-03T04:48:21.052Z,100629.00
2023-03-03T04:50:48.846Z,100628.16
2023-03-03T04:53:16.710Z,100622.91
2023-03-03T04:55:44.655Z,100622.03
2023-03-03T04:58:12.257Z,100620.31
2023-03-03T05:00:39.859Z,100619.34
2023-03-03T05:03:07.483Z,100615.81
2023-03-03T05:05:35.083Z,100625.38
2023-03-03T05:08:03.052Z,100620.00
2023-03-03T05:10:30.673Z,100614.66
2023-03-03T05:12:58.367Z,100608.59
2023-03-03T05:15:26.880Z,100620.00
2023-03-03T05:17:56.641Z,100611.22
2023-03-03T05:20:24.643Z,100610.31
2023-03-03T05:22:52.242Z,100608.59
2023-03-03T05:25:19.895Z,100615.56
2023-03-03T05:27:47.698Z,100604.22
2023-03-03T05:30:15.259Z,100609.50
2023-03-03T05:32:43.268Z,100608.66
2023-03-03T05:35:10.848Z,100614.81
2023-03-03T05:37:40.238Z,100613.16
2023-03-03T05:40:07.906Z,100619.19
2023-03-03T05:42:35.665Z,100619.16
2023-03-03T05:45:03.685Z,100626.13
2023-03-03T05:47:31.332Z,100618.19
2023-03-03T05:49:58.962Z,100616.38
2023-03-03T05:52:26.589Z,100616.38
2023-03-03T05:54:54.271Z,100620.75
2023-03-03T05:57:22.064Z,100621.63
2023-03-03T05:59:49.707Z,100628.69
2023-03-03T06:02:17.365Z,100623.44
2023-03-03T06:04:45.017Z,100625.19
2023-03-03T06:07:12.688Z,100625.94
2023-03-03T06:09:40.745Z,100625.03
2023-03-03T06:12:08.428Z,100643.38
2023-03-03T06:14:36.122Z,100645.97
2023-03-03T06:17:04.056Z,100643.38
2023-03-03T06:19:31.651Z,100651.31
2023-03-03T06:22:00.851Z,100648.75
2023-03-03T06:24:30.592Z,100650.56
2023-03-03T06:26:58.257Z,100649.72
2023-03-03T06:29:25.949Z,100651.41
2023-03-03T06:31:53.814Z,100646.97
2023-03-03T06:34:21.574Z,100653.00
2023-03-03T06:36:49.232Z,100658.19
2023-03-03T06:39:17.030Z,100662.47
2023-03-03T06:41:44.672Z,100677.25
2023-03-03T06:44:13.164Z,100659.78
2023-03-03T06:46:41.234Z,100674.59
2023-03-03T06:49:08.892Z,100667.56
2023-03-03T06:51:36.498Z,100676.28
2023-03-03T06:54:04.466Z,100677.16
2023-03-03T06:56:32.109Z,100678.88
2023-03-03T06:59:00.096Z,100670.03
2023-03-03T07:01:28.055Z,100673.41
2023-03-03T07:03:55.769Z,100672.47
2023-03-03T07:06:25.007Z,100668.91
2023-03-03T07:08:53.042Z,100669.75
2023-03-03T07:11:21.275Z,100672.38
2023-03-03T07:13:48.949Z,100674.94
2023-03-03T07:16:16.837Z,100678.47
2023-03-03T07:18:45.762Z,100674.94
2023-03-03T07:21:13.393Z,100678.38
2023-03-03T07:23:43.002Z,100673.97
2023-03-03T07:26:10.658Z,100689.72
2023-03-03T07:28:38.346Z,100693.25
2023-03-03T07:31:06.375Z,100696.78
2023-03-03T07:33:34.117Z,100703.75
2023-03-03T07:36:02.258Z,100707.25
2023-03-03T07:38:30.062Z,100706.34
2023-03-03T07:40:58.038Z,100712.47
2023-03-03T07:43:27.807Z,100715.00
2023-03-03T07:45:55.726Z,100708.81
2023-03-03T07:48:24.264Z,100714.00
2023-03-03T07:50:51.998Z,100710.44
2023-03-03T07:53:19.909Z,100723.41
2023-03-03T07:55:48.376Z,100718.81
2023-03-03T07:58:16.675Z,100723.94
2023-03-03T08:00:44.946Z,100722.97
2023-03-03T08:03:12.628Z,100729.09
2023-03-03T08:05:40.422Z,100733.44
2023-03-03T08:08:08.508Z,100731.59
2023-03-03T08:10:36.463Z,100728.97
2023-03-03T08:13:04.641Z,100734.19
2023-03-03T08:15:32.571Z,100728.06
2023-03-03T08:18:00.388Z,100738.47
2023-03-03T08:20:28.686Z,100737.56
2023-03-03T08:22:56.444Z,100732.25
2023-03-03T08:25:24.187Z,100734.88
2023-03-03T08:27:51.830Z,100738.44
2023-03-03T08:30:19.514Z,100741.84
2023-03-03T08:32:48.212Z,100735.69
2023-03-03T08:35:16.062Z,100742.50
2023-03-03T08:37:44.183Z,100741.53
2023-03-03T08:40:11.995Z,100750.22
2023-03-03T08:42:39.742Z,100748.50
2023-03-03T08:45:08.284Z,100752.84
2023-03-03T08:47:36.018Z,100758.94
2023-03-03T08:50:04.497Z,100763.34
2023-03-03T08:52:32.455Z,100767.69
2023-03-03T08:55:00.861Z,100762.53
2023-03-03T08:57:28.880Z,100758.97
2023-03-03T08:59:57.085Z,100762.41
2023-03-03T09:02:25.173Z,100767.63
2023-03-03T09:04:53.033Z,100773.66
2023-03-03T09:07:21.034Z,100767.50
2023-03-03T09:09:49.273Z,100766.53
2023-03-03T09:12:17.167Z,100774.25
2023-03-03T09:14:45.585Z,100777.59
2023-03-03T09:17:13.612Z,100773.06
2023-03-03T09:19:41.401Z,100776.44
2023-03-03T09:22:09.878Z,100768.34
2023-03-03T09:24:37.647Z,100767.25
2023-03-03T09:27:06.008Z,100761.91
2023-03-03T09:29:33.850Z,100766.16
2023-03-03T09:32:02.552Z,100767.09
2023-03-03T09:34:30.931Z,100764.31
2023-03-03T09:37:00.411Z,100764.16
2023-03-03T09:39:28.763Z,100765.72
2023-03-03T09:41:56.510Z,100765.59
2023-03-03T09:44:24.320Z,100766.38
2023-03-03T09:46:52.167Z,100775.91
2023-03-03T09:49:20.023Z,100777.38
2023-03-03T09:51:48.329Z,100781.59
2023-03-03T09:54:16.328Z,100776.22
2023-03-03T09:56:44.805Z,100788.44
2023-03-03T09:59:13.334Z,100791.91
2023-03-03T10:01:41.113Z,100790.19
2023-03-03T10:04:08.962Z,100792.78
2023-03-03T10:06:36.847Z,100797.13
2023-03-03T10:09:04.683Z,100794.41
2023-03-03T10:11:32.994Z,100793.44
2023-03-03T10:14:00.973Z,100797.72
2023-03-03T10:16:29.229Z,100795.03
2023-03-03T10:18:57.000Z,100795.66
2023-03-03T10:21:24.935Z,100805.19
2023-03-03T10:23:56.901Z,100803.19
2023-03-03T10:26:42.009Z,100799.59
2023-03-03T10:29:12.542Z,100806.56
2023-03-03T10:31:40.469Z,100809.94
2023-03-03T10:34:08.762Z,100815.22
2023-03-03T10:36:36.480Z,100812.47
2023-03-03T10:39:04.448Z,100808.00
2023-03-03T10:41:32.597Z,100811.38
2023-03-03T10:44:01.007Z,100818.31
2023-03-03T10:46:29.161Z,100812.06
2023-03-03T10:48:57.757Z,100807.56
2023-03-03T10:51:25.622Z,100811.00
2023-03-03T10:53:54.317Z,100815.28
2023-03-03T10:56:22.130Z,100818.72
2023-03-03T10:58:50.139Z,100816.03
2023-03-03T11:01:18.132Z,100812.63
2023-03-03T11:03:45.953Z,100809.16
2023-03-03T11:06:14.659Z,100811.75
2023-03-03T11:08:42.660Z,100804.63
2023-03-03T11:11:10.804Z,100810.72
2023-03-03T11:13:38.775Z,100804.38
2023-03-03T11:16:07.138Z,100801.63
2023-03-03T11:18:35.511Z,100798.72
2023-03-03T11:21:03.383Z,100797.56
2023-03-03T11:23:31.401Z,100799.16
2023-03-03T11:25:59.257Z,100806.94
2023-03-03T11:28:27.092Z,100795.41
2023-03-03T11:30:55.958Z,100805.91
2023-03-03T11:33:23.948Z,100803.25
2023-03-03T11:35:52.059Z,100806.81
2023-03-03T11:38:20.153Z,100803.13
2023-03-03T11:40:48.137Z,100801.16
2023-03-03T11:43:29.893Z,100801.91
2023-03-03T11:46:03.508Z,100785.88
2023-03-03T11:48:31.637Z,100789.97
2023-03-03T11:50:59.483Z,100785.28
2023-03-03T11:53:27.812Z,100783.16
2023-03-03T11:55:55.668Z,100789.03
2023-03-03T11:58:23.565Z,100788.75
2023-03-03T12:00:51.427Z,100784.91
2023-03-03T12:03:19.223Z,100775.91
2023-03-03T12:05:47.302Z,100773.84
2023-03-03T12:08:15.554Z,100774.56
2023-03-03T12:10:44.682Z,100772.56
2023-03-03T12:13:12.726Z,100759.16
2023-03-03T12:15:40.731Z,100762.50
2023-03-03T12:18:08.877Z,100757.03
2023-03-03T12:20:36.673Z,100763.03
2023-03-03T12:23:07.282Z,100754.94
2023-03-03T12:25:35.370Z,100761.00
2023-03-03T12:28:03.443Z,100751.31
2023-03-03T12:30:32.075Z,100751.31
2023-03-03T12:33:00.556Z,100761.81
2023-03-03T12:35:28.334Z,100748.50
2023-03-03T12:37:56.337Z,100757.59
2023-03-03T12:40:24.120Z,100758.56
2023-03-03T12:42:52.311Z,100755.94
2023-03-03T12:45:20.478Z,100748.88
2023-03-03T12:47:48.506Z,100751.38
2023-03-03T12:50:16.370Z,100754.88
2023-03-03T12:52:44.265Z,100756.75
2023-03-03T12:55:12.939Z,100755.88
2023-03-03T12:57:40.702Z,100758.56
2023-03-03T13:00:08.771Z,100751.59
2023-03-03T13:02:36.809Z,100752.25
2023-03-03T13:05:04.746Z,100758.09
2023-03-03T13:07:33.611Z,100750.88
2023-03-03T13:10:01.520Z,100741.91
2023-03-03T13:12:29.891Z,100751.59
2023-03-03T13:14:57.734Z,100748.94
2023-03-03T13:17:25.960Z,100754.22
2023-03-03T13:19:54.398Z,100747.97
2023-03-03T13:22:22.467Z,100753.31
2023-03-03T13:24:50.477Z,100754.16
2023-03-03T13:27:18.333Z,100751.59
2023-03-03T13:29:46.479Z,100753.41
2023-03-03T13:32:14.708Z,100748.00
2023-03-03T13:34:42.536Z,100749.72
2023-03-03T13:37:10.713Z,100750.44
2023-03-03T13:39:38.803Z,100750.19
2023-03-03T13:42:06.648Z,100748.03
2023-03-03T13:44:34.586Z,100742.41
2023-03-03T13:47:02.322Z,100735.91
2023-03-03T13:49:30.297Z,100745.13
2023-03-03T13:51:58.265Z,100739.63
2023-03-03T13:54:26.183Z,100739.41
2023-03-03T13:56:54.436Z,100734.91
2023-03-03T13:59:22.541Z,100733.03
2023-03-03T14:01:50.646Z,100731.28
2023-03-03T14:04:18.617Z,100733.03
2023-03-03T14:06:46.703Z,100727.69
2023-03-03T14:09:15.890Z,100727.47
2023-03-03T14:11:43.649Z,100722.63
2023-03-03T14:14:12.183Z,100720.69
2023-03-03T14:16:40.086Z,100718.88
2023-03-03T14:19:08.101Z,100719.06
2023-03-03T14:21:37.019Z,100720.94
2023-03-03T14:24:05.196Z,100715.63
2023-03-03T14:26:33.384Z,100713.22
2023-03-03T14:29:01.357Z,100723.09
2023-03-03T14:31:29.173Z,100710.72
2023-03-03T14:33:57.371Z,100715.88
2023-03-03T14:36:25.377Z,100714.78
2023-03-03T14:38:53.437Z,100712.06
2023-03-03T14:41:21.347Z,100700.38
2023-03-03T14:43:49.309Z,100697.59
2023-03-03T14:46:18.107Z,100702.09
2023-03-03T14:48:46.005Z,100698.91
2023-03-03T14:51:14.466Z,100702.78
2023-03-03T14:53:42.362Z,100698.84
2023-03-03T14:56:10.254Z,100696.50
2023-03-03T14:58:38.695Z,100695.47
2023-03-03T15:01:06.552Z,100693.59
2023-03-03T15:03:34.956Z,100688.25
2023-03-03T15:06:03.008Z,100693.31
2023-03-03T15:08:31.187Z,100686.84
2023-03-03T15:11:00.545Z,100692.75
2023-03-03T15:13:29.671Z,100689.47
2023-03-03T15:15:57.673Z,100692.56
2023-03-03T15:18:25.630Z,100693.44
2023-03-03T15:20:53.927Z,100690.03
2023-03-03T15:23:22.489Z,100685.81
2023-03-03T15:25:54.595Z,100694.00
2023-03-03T15:28:24.450Z,100687.25
2023-03-03T15:30:52.298Z,100680.13
2023-03-03T15:33:21.023Z,100681.94
2023-03-03T15:35:49.700Z,100683.72
2023-03-03T15:38:17.659Z,100676.47
2023-03-03T15:40:45.652Z,100674.78
2023-03-03T15:43:13.955Z,100676.88
2023-03-03T15:45:41.795Z,100666.50
2023-03-03T15:48:10.042Z,100660.59
2023-03-03T15:50:38.349Z,100653.97
2023-03-03T15:53:06.802Z,100650.38
2023-03-03T15:55:35.448Z,100650.28
2023-03-03T15:58:03.503Z,100651.59
2023-03-03T16:00:31.734Z,100647.59
2023-03-03T16:02:59.762Z,100650.94
2023-03-03T16:05:28.369Z,100651.00
2023-03-03T16:07:56.269Z,100654.28
2023-03-03T16:10:24.330Z,100663.72
2023-03-03T16:12:53.034Z,100663.50
2023-03-03T16:15:20.918Z,100657.97
2023-03-03T16:17:49.189Z,100666.34
2023-03-03T16:20:17.174Z,100663.22
2023-03-03T16:22:44.951Z,100668.94
2023-03-03T16:25:13.604Z,100667.53
2023-03-03T16:27:41.683Z,100665.81
2023-03-03T16:30:09.901Z,100667.50
2023-03-03T16:32:37.823Z,100668.34
2023-03-03T16:35:06.331Z,100671.81
2023-03-03T16:37:35.325Z,100678.63
2023-03-03T16:40:03.759Z,100670.56
2023-03-03T16:42:32.017Z,100669.53
2023-03-03T16:44:59.945Z,100680.78
2023-03-03T16:47:27.863Z,100677.09
2023-03-03T16:49:56.540Z,100677.75
2023-03-03T16:52:24.435Z,100681.03
2023-03-03T16:54:54.648Z,100681.56
2023-03-03T16:57:22.665Z,100675.97
2023-03-03T16:59:50.606Z,100683.47
2023-03-03T17:02:19.348Z,100684.81
2023-03-03T17:04:47.256Z,100692.25
2023-03-03T17:07:15.328Z,100698.88
2023-03-03T17:09:43.272Z,100695.81
2023-03-03T17:12:11.297Z,100703.19
2023-03-03T17:14:39.928Z,100704.38
2023-03-03T17:17:07.815Z,100698.66
2023-03-03T17:19:36.818Z,100699.94
2023-03-03T17:22:04.624Z,100711.69
2023-03-03T17:24:32.451Z,100712.94
2023-03-03T17:27:00.852Z,100716.75
2023-03-03T17:29:28.936Z,100712.56
2023-03-03T17:31:57.299Z,100719.75
2023-03-03T17:34:25.175Z,100719.06
2023-03-03T17:36:52.966Z,100708.72
2023-03-03T17:39:21.056Z,100721.97
2023-03-03T17:41:49.199Z,100722.09
2023-03-03T17:44:17.309Z,100725.81
2023-03-03T17:46:45.317Z,100730.38
2023-03-03T17:49:13.364Z,100729.78
2023-03-03T17:51:41.222Z,100728.34
2023-03-03T17:54:09.058Z,100733.81
2023-03-03T17:56:37.695Z,100732.41
2023-03-03T17:59:05.607Z,100743.22
2023-03-03T18:01:33.438Z,100740.81
2023-03-03T18:04:02.213Z,100743.69
2023-03-03T18:06:30.059Z,100743.00
2023-03-03T18:09:12.910Z,100744.88
2023-03-03T18:11:41.581Z,100747.75
2023-03-03T18:14:09.905Z,100747.78
2023-03-03T18:16:37.816Z,100751.31
2023-03-03T18:19:06.273Z,100746.16
2023-03-03T18:21:35.354Z,100736.66
2023-03-03T18:24:03.435Z,100738.47
2023-03-03T18:26:43.596Z,100745.59
2023-03-03T18:29:17.539Z,100750.09
2023-03-03T18:31:45.747Z,100751.13
2023-03-03T18:34:13.672Z,100747.78
2023-03-03T18:36:42.260Z,100756.66
2023-03-03T18:39:10.371Z,100743.63
2023-03-03T18:41:39.922Z,100753.38
2023-03-03T18:44:07.858Z,100756.81
2023-03-03T18:46:35.989Z,100750.78
2023-03-03T18:49:04.608Z,100756.06
2023-03-03T18:51:32.636Z,100752.66
2023-03-03T18:54:00.943Z,100755.38
2023-03-03T18:56:28.970Z,100758.06
2023-03-03T18:58:56.767Z,100760.75
2023-03-03T19:01:25.502Z,100766.03
2023-03-03T19:03:53.840Z,100766.94
2023-03-03T19:06:21.889Z,100761.69
2023-03-03T19:08:54.325Z,100762.59
2023-03-03T19:11:22.182Z,100766.06
2023-03-03T19:13:50.605Z,100765.13
2023-03-03T19:16:18.767Z,100768.53
2023-03-03T19:18:46.821Z,100772.78
2023-03-03T19:21:14.656Z,100768.22
2023-03-03T19:23:42.879Z,100767.16
2023-03-03T19:26:11.545Z,100772.16
2023-03-03T19:28:39.592Z,100769.22
2023-03-03T19:31:07.857Z,100762.81
2023-03-03T19:33:35.926Z,100766.91
2023-03-03T19:36:03.880Z,100763.16
2023-03-03T19:38:33.066Z,100766.38
2023-03-03T19:41:01.203Z,100770.44
2023-03-03T19:43:29.316Z,100776.34
2023-03-03T19:45:57.349Z,100773.56
2023-03-03T19:48:25.751Z,100769.06
2023-03-03T19:50:54.219Z,100774.25
2023-03-03T19:53:22.161Z,100763.63
2023-03-03T19:55:50.186Z,100770.53
2023-03-03T19:58:18.740Z,100762.41
2023-03-03T20:00:46.716Z,100757.03
2023-03-03T20:03:14.981Z,100765.75
2023-03-03T20:05:42.960Z,100764.00
2023-03-03T20:08:11.188Z,100771.81
2023-03-03T20:10:39.416Z,100760.44
2023-03-03T20:13:07.455Z,100761.31
2023-03-03T20:15:35.420Z,100764.84
2023-03-03T20:18:03.405Z,100757.03
2023-03-03T20:20:31.262Z,100758.75
2023-03-03T20:22:59.335Z,100758.63
2023-03-03T20:25:27.155Z,100760.31
2023-03-03T20:27:55.361Z,100761.06
2023-03-03T20:30:23.473Z,100753.94
2023-03-03T20:32:53.315Z,100759.16
2023-03-03T20:35:23.628Z,100765.19
2023-03-03T20:37:51.675Z,100759.81
2023-03-03T20:40:19.978Z,100766.78
2023-03-03T20:42:47.830Z,100760.59
2023-03-03T20:45:16.350Z,100763.19
2023-03-03T20:47:44.255Z,100768.44
2023-03-03T20:50:15.666Z,100764.09
2023-03-03T20:52:44.066Z,100764.16
2023-03-03T20:55:12.027Z,100757.03
2023-03-03T20:57:39.948Z,100755.19
2023-03-03T21:00:07.953Z,100762.16
2023-03-03T21:02:35.805Z,100758.78
2023-03-03T21:05:05.764Z,100771.13
2023-03-03T21:07:33.861Z,100761.47
2023-03-03T21:10:02.335Z,100763.22
2023-03-03T21:12:30.349Z,100759.81
2023-03-03T21:14:58.848Z,100764.25
2023-03-03T21:17:26.844Z,100769.56
2023-03-03T21:19:54.633Z,100766.00
2023-03-03T21:22:22.989Z,100760.72
2023-03-03T21:24:50.825Z,100761.63
2023-03-03T21:27:18.785Z,100745.91
2023-03-03T21:29:47.326Z,100759.09
2023-03-03T21:32:15.321Z,100758.13
2023-03-03T21:34:44.024Z,100761.56
2023-03-03T21:37:12.726Z,100755.34
2023-03-03T21:39:40.510Z,100753.53
2023-03-03T21:42:08.464Z,100751.75
2023-03-03T21:44:36.517Z,100748.25
2023-03-03T21:47:04.714Z,100752.72
2023-03-03T21:49:32.589Z,100747.31
2023-03-03T21:52:00.438Z,100738.41
2023-03-03T21:54:28.232Z,100736.63
2023-03-03T21:56:56.008Z,100746.34
2023-03-03T21:59:24.491Z,100749.84
2023-03-03T22:01:52.542Z,100742.63
2023-03-03T22:04:20.406Z,100744.28
2023-03-03T22:06:48.687Z,100738.88
2023-03-03T22:09:16.572Z,100744.97
2023-03-03T22:11:44.717Z,100746.56
2023-03-03T22:14:12.756Z,100742.13
2023-03-03T22:16:40.596Z,100746.44
2023-03-03T22:19:10.265Z,100744.75
2023-03-03T22:21:38.258Z,100750.00
2023-03-03T22:24:06.621Z,100748.19
2023-03-03T22:26:34.343Z,100758.59
2023-03-03T22:29:02.272Z,100747.16
2023-03-03T22:31:30.545Z,100745.41
2023-03-03T22:33:58.405Z,100755.06
2023-03-03T22:36:26.528Z,100747.22
2023-03-03T22:38:54.414Z,100751.56
2023-03-03T22:41:22.741Z,100745.41
2023-03-03T22:43:51.336Z,100744.53
2023-03-03T22:46:19.260Z,100743.69
2023-03-03T22:48:46.988Z,100737.50
2023-03-03T22:51:14.901Z,100746.09
2023-03-03T22:53:42.604Z,100740.66
2023-03-03T22:56:10.747Z,100738.78
2023-03-03T22:58:38.632Z,100742.41
2023-03-03T23:01:06.702Z,100745.19
2023-03-03T23:03:34.879Z,100738.34
2023-03-03T23:06:02.715Z,100731.44
2023-03-03T23:08:30.823Z,100733.22
2023-03-03T23:10:58.707Z,100729.72
2023-03-03T23:13:27.637Z,100728.75
2023-03-03T23:15:58.591Z,100725.97
2023-03-03T23:18:26.363Z,100732.84
2023-03-03T23:20:54.502Z,100728.34
2023-03-03T23:23:22.234Z,100735.25
2023-03-03T23:25:51.855Z,100738.69
2023-03-03T23:28:19.612Z,100735.13
2023-03-03T23:30:47.381Z,100728.97
2023-03-03T23:33:15.468Z,100729.72
2023-03-03T23:35:45.416Z,100732.16
2023-03-03T23:38:17.817Z,100725.94
2023-03-03T23:40:46.934Z,100735.38
2023-03-03T23:43:14.619Z,100732.47
2023-03-03T23:45:42.336Z,100730.59
2023-03-03T23:48:10.560Z,100730.50
2023-03-03T23:50:39.461Z,100732.34
2023-03-03T23:53:07.134Z,100735.03
2023-03-03T23:55:34.929Z,100735.03
2023-03-03T23:58:03.021Z,100728.94
